sensor_id;sensor_type;location;lat;lon;timestamp;pressure;altitude;pressure_sealevel;temperature;humidity
20015;BME280;61787;42.022;23.078;2023-05-23T00:00:18;96488.94;;;16.15;80.41
20015;BME280;61787;42.022;23.078;2023-05-23T00:01:20;96492.78;;;16.14;80.48
20015;BME280;61787;42.022;23.078;2023-05-23T00:02:21;96491.13;;;15.99;80.98
20015;BME280;61787;42.022;23.078;2023-05-23T00:03:26;96491.03;;;15.85;82.13
20015;BME280;61787;42.022;23.078;2023-05-23T00:04:29;96487.91;;;15.79;82.61
20015;BME280;61787;42.022;23.078;2023-05-23T00:05:31;96489.44;;;15.80;82.39
20015;BME280;61787;42.022;23.078;2023-05-23T00:06:32;96479.28;;;15.66;82.71
20015;BME280;61787;42.022;23.078;2023-05-23T00:07:35;96487.72;;;15.61;82.79
20015;BME280;61787;42.022;23.078;2023-05-23T00:08:36;96486.94;;;15.57;83.49
20015;BME280;61787;42.022;23.078;2023-05-23T00:09:38;96488.84;;;15.53;83.72
20015;BME280;61787;42.022;23.078;2023-05-23T00:10:40;96486.91;;;15.54;84.25
20015;BME280;61787;42.022;23.078;2023-05-23T00:11:41;96491.53;;;15.53;84.09
20015;BME280;61787;42.022;23.078;2023-05-23T00:12:46;96499.97;;;15.48;84.21
20015;BME280;61787;42.022;23.078;2023-05-23T00:13:48;96504.53;;;15.44;84.93
20015;BME280;61787;42.022;23.078;2023-05-23T00:14:51;96491.75;;;15.41;85.05
20015;BME280;61787;42.022;23.078;2023-05-23T00:15:54;96501.44;;;15.42;85.41
20015;BME280;61787;42.022;23.078;2023-05-23T00:16:55;96496.06;;;15.46;85.52
20015;BME280;61787;42.022;23.078;2023-05-23T00:17:57;96501.44;;;15.42;85.37
20015;BME280;61787;42.022;23.078;2023-05-23T00:19:01;96495.63;;;15.40;85.52
20015;BME280;61787;42.022;23.078;2023-05-23T00:20:06;96496.06;;;15.49;85.40
20015;BME280;61787;42.022;23.078;2023-05-23T00:21:12;96490.78;;;15.56;85.17
20015;BME280;61787;42.022;23.078;2023-05-23T00:22:17;96494.69;;;15.62;84.22
20015;BME280;61787;42.022;23.078;2023-05-23T00:23:19;96492.47;;;15.71;84.32
20015;BME280;61787;42.022;23.078;2023-05-23T00:24:21;96494.47;;;15.82;83.49
20015;BME280;61787;42.022;23.078;2023-05-23T00:25:23;96498.72;;;15.83;83.56
20015;BME280;61787;42.022;23.078;2023-05-23T00:26:25;96498.03;;;15.89;83.48
20015;BME280;61787;42.022;23.078;2023-05-23T00:27:30;96499.59;;;15.94;82.72
20015;BME280;61787;42.022;23.078;2023-05-23T00:28:31;96501.94;;;15.99;82.92
20015;BME280;61787;42.022;23.078;2023-05-23T00:29:33;96503.91;;;16.02;83.16
20015;BME280;61787;42.022;23.078;2023-05-23T00:30:35;96502.00;;;16.06;82.82
20015;BME280;61787;42.022;23.078;2023-05-23T00:31:37;96501.28;;;16.12;82.98
20015;BME280;61787;42.022;23.078;2023-05-23T00:32:38;96498.19;;;16.14;83.22
20015;BME280;61787;42.022;23.078;2023-05-23T00:33:40;96501.25;;;16.09;83.84
20015;BME280;61787;42.022;23.078;2023-05-23T00:34:42;96508.22;;;16.10;84.00
20015;BME280;61787;42.022;23.078;2023-05-23T00:35:44;96502.06;;;16.13;83.30
20015;BME280;61787;42.022;23.078;2023-05-23T00:36:46;96502.03;;;16.09;83.96
20015;BME280;61787;42.022;23.078;2023-05-23T00:37:48;96511.28;;;16.05;84.57
20015;BME280;61787;42.022;23.078;2023-05-23T00:38:52;96508.94;;;16.00;84.62
20015;BME280;61787;42.022;23.078;2023-05-23T00:39:54;96507.38;;;15.99;84.78
20015;BME280;61787;42.022;23.078;2023-05-23T00:40:56;96510.41;;;15.94;85.02
20015;BME280;61787;42.022;23.078;2023-05-23T00:41:57;96513.50;;;15.96;84.75
20015;BME280;61787;42.022;23.078;2023-05-23T00:42:59;96508.16;;;15.99;84.27
20015;BME280;61787;42.022;23.078;2023-05-23T00:44:01;96510.00;;;15.92;84.91
20015;BME280;61787;42.022;23.078;2023-05-23T00:45:04;96512.66;;;15.85;84.91
20015;BME280;61787;42.022;23.078;2023-05-23T00:46:06;96507.25;;;15.85;84.82
20015;BME280;61787;42.022;23.078;2023-05-23T00:47:09;96511.16;;;15.91;84.73
20015;BME280;61787;42.022;23.078;2023-05-23T00:48:14;96514.25;;;15.93;84.67
20015;BME280;61787;42.022;23.078;2023-05-23T00:49:16;96515.06;;;15.97;84.36
20015;BME280;61787;42.022;23.078;2023-05-23T00:50:21;96509.66;;;15.97;83.54
20015;BME280;61787;42.022;23.078;2023-05-23T00:51:23;96517.41;;;15.98;83.91
20015;BME280;61787;42.022;23.078;2023-05-23T00:52:25;96515.41;;;15.92;83.63
20015;BME280;61787;42.022;23.078;2023-05-23T00:53:26;96515.72;;;15.83;84.05
20015;BME280;61787;42.022;23.078;2023-05-23T00:54:29;96513.81;;;15.84;84.07
20015;BME280;61787;42.022;23.078;2023-05-23T00:55:33;96515.38;;;15.88;84.41
20015;BME280;61787;42.022;23.078;2023-05-23T00:56:35;96518.16;;;15.95;83.81
20015;BME280;61787;42.022;23.078;2023-05-23T00:57:37;96519.66;;;15.93;83.64
20015;BME280;61787;42.022;23.078;2023-05-23T00:58:45;96517.31;;;15.88;83.91
20015;BME280;61787;42.022;23.078;2023-05-23T00:59:46;96518.44;;;15.83;83.93
20015;BME280;61787;42.022;23.078;2023-05-23T01:00:48;96514.97;;;15.83;84.32
20015;BME280;61787;42.022;23.078;2023-05-23T01:01:51;96516.81;;;15.75;83.95
20015;BME280;61787;42.022;23.078;2023-05-23T01:02:54;96519.09;;;15.69;84.52
20015;BME280;61787;42.022;23.078;2023-05-23T01:03:56;96516.44;;;15.76;84.59
20015;BME280;61787;42.022;23.078;2023-05-23T01:04:58;96512.66;;;15.85;84.22
20015;BME280;61787;42.022;23.078;2023-05-23T01:06:02;96511.94;;;15.91;83.71
20015;BME280;61787;42.022;23.078;2023-05-23T01:07:04;96514.69;;;15.98;83.18
20015;BME280;61787;42.022;23.078;2023-05-23T01:08:06;96515.91;;;16.04;82.94
20015;BME280;61787;42.022;23.078;2023-05-23T01:09:08;96522.06;;;16.01;83.25
20015;BME280;61787;42.022;23.078;2023-05-23T01:10:28;96515.13;;;16.04;82.69
20015;BME280;61787;42.022;23.078;2023-05-23T01:11:59;96513.63;;;16.10;82.21
20015;BME280;61787;42.022;23.078;2023-05-23T01:14:25;96516.78;;;16.19;81.71
20015;BME280;61787;42.022;23.078;2023-05-23T01:15:40;96510.25;;;16.24;81.06
20015;BME280;61787;42.022;23.078;2023-05-23T01:16:47;96512.94;;;16.24;81.46
20015;BME280;61787;42.022;23.078;2023-05-23T01:17:59;96500.56;;;16.19;81.72
20015;BME280;61787;42.022;23.078;2023-05-23T01:19:16;96510.19;;;16.16;82.10
20015;BME280;61787;42.022;23.078;2023-05-23T01:20:37;96513.72;;;16.20;82.15
20015;BME280;61787;42.022;23.078;2023-05-23T01:21:42;96514.50;;;16.25;81.82
20015;BME280;61787;42.022;23.078;2023-05-23T01:26:52;96510.53;;;16.08;82.62
20015;BME280;61787;42.022;23.078;2023-05-23T01:28:01;96504.69;;;16.06;83.13
20015;BME280;61787;42.022;23.078;2023-05-23T01:29:12;96502.41;;;16.11;82.93
20015;BME280;61787;42.022;23.078;2023-05-23T01:30:17;96495.13;;;16.15;82.54
20015;BME280;61787;42.022;23.078;2023-05-23T01:31:21;96506.81;;;16.30;81.57
20015;BME280;61787;42.022;23.078;2023-05-23T01:32:25;96501.44;;;16.37;80.51
20015;BME280;61787;42.022;23.078;2023-05-23T01:33:30;96508.03;;;16.43;80.31
20015;BME280;61787;42.022;23.078;2023-05-23T01:34:34;96502.28;;;16.48;80.48
20015;BME280;61787;42.022;23.078;2023-05-23T01:35:37;96506.13;;;16.47;79.90
20015;BME280;61787;42.022;23.078;2023-05-23T01:36:41;96503.06;;;16.49;79.98
20015;BME280;61787;42.022;23.078;2023-05-23T01:37:43;96500.72;;;16.47;80.15
20015;BME280;61787;42.022;23.078;2023-05-23T01:38:45;96505.38;;;16.50;79.44
20015;BME280;61787;42.022;23.078;2023-05-23T01:39:47;96501.53;;;16.51;79.90
20015;BME280;61787;42.022;23.078;2023-05-23T01:40:49;96504.63;;;16.53;79.32
20015;BME280;61787;42.022;23.078;2023-05-23T01:41:51;96497.66;;;16.52;79.27
20015;BME280;61787;42.022;23.078;2023-05-23T01:42:54;96502.28;;;16.52;79.34
20015;BME280;61787;42.022;23.078;2023-05-23T01:43:57;96496.13;;;16.51;79.62
20015;BME280;61787;42.022;23.078;2023-05-23T01:44:59;96501.53;;;16.51;79.54
20015;BME280;61787;42.022;23.078;2023-05-23T01:46:02;96499.22;;;16.53;78.72
20015;BME280;61787;42.022;23.078;2023-05-23T01:47:06;96493.78;;;16.53;78.27
20015;BME280;61787;42.022;23.078;2023-05-23T01:48:10;96496.13;;;16.51;78.54
20015;BME280;61787;42.022;23.078;2023-05-23T01:49:14;96496.84;;;16.41;78.64
20015;BME280;61787;42.022;23.078;2023-05-23T01:50:17;96499.94;;;16.43;78.51
20015;BME280;61787;42.022;23.078;2023-05-23T01:51:20;96501.47;;;16.44;78.82
20015;BME280;61787;42.022;23.078;2023-05-23T01:52:22;96500.72;;;16.47;78.20
20015;BME280;61787;42.022;23.078;2023-05-23T01:53:25;96498.41;;;16.46;78.48
20015;BME280;61787;42.022;23.078;2023-05-23T01:54:28;96495.59;;;16.32;79.39
20015;BME280;61787;42.022;23.078;2023-05-23T01:55:30;96500.56;;;16.19;80.07
20015;BME280;61787;42.022;23.078;2023-05-23T01:56:32;96508.16;;;16.03;80.40
20015;BME280;61787;42.022;23.078;2023-05-23T01:57:36;96497.31;;;15.99;81.20
20015;BME280;61787;42.022;23.078;2023-05-23T01:58:38;96501.59;;;16.00;81.20
20015;BME280;61787;42.022;23.078;2023-05-23T01:59:40;96503.47;;;15.96;81.57
20015;BME280;61787;42.022;23.078;2023-05-23T02:00:42;96499.56;;;15.90;81.35
20015;BME280;61787;42.022;23.078;2023-05-23T02:01:43;96500.34;;;15.91;81.79
20015;BME280;61787;42.022;23.078;2023-05-23T02:02:45;96503.72;;;15.77;81.88
20015;BME280;61787;42.022;23.078;2023-05-23T02:03:48;96490.09;;;15.66;82.39
20015;BME280;61787;42.022;23.078;2023-05-23T02:04:50;96497.00;;;15.60;82.53
20015;BME280;61787;42.022;23.078;2023-05-23T02:05:51;96495.41;;;15.56;82.90
20015;BME280;61787;42.022;23.078;2023-05-23T02:06:53;96497.19;;;15.45;83.41
20015;BME280;61787;42.022;23.078;2023-05-23T02:07:54;96502.09;;;15.32;83.85
20015;BME280;61787;42.022;23.078;2023-05-23T02:08:57;96503.16;;;15.24;84.41
20015;BME280;61787;42.022;23.078;2023-05-23T02:09:59;96504.56;;;15.11;84.98
20015;BME280;61787;42.022;23.078;2023-05-23T02:11:00;96506.22;;;14.85;86.42
20015;BME280;61787;42.022;23.078;2023-05-23T02:12:02;96502.09;;;14.65;87.52
20015;BME280;61787;42.022;23.078;2023-05-23T02:13:04;96501.09;;;14.47;88.87
20015;BME280;61787;42.022;23.078;2023-05-23T02:14:06;96504.09;;;14.42;89.30
20015;BME280;61787;42.022;23.078;2023-05-23T02:15:08;96504.69;;;14.32;90.40
20015;BME280;61787;42.022;23.078;2023-05-23T02:16:09;96501.53;;;14.26;90.13
20015;BME280;61787;42.022;23.078;2023-05-23T02:17:11;96501.44;;;14.19;90.77
20015;BME280;61787;42.022;23.078;2023-05-23T02:18:15;96508.75;;;14.19;90.73
20015;BME280;61787;42.022;23.078;2023-05-23T02:19:18;96502.91;;;14.13;91.23
20015;BME280;61787;42.022;23.078;2023-05-23T02:20:20;96506.31;;;14.10;91.65
20015;BME280;61787;42.022;23.078;2023-05-23T02:21:22;96501.28;;;14.08;91.69
20015;BME280;61787;42.022;23.078;2023-05-23T02:22:24;96506.47;;;13.94;92.35
20015;BME280;61787;42.022;23.078;2023-05-23T02:23:26;96502.53;;;13.88;93.07
20015;BME280;61787;42.022;23.078;2023-05-23T02:24:28;96504.00;;;13.86;93.61
20015;BME280;61787;42.022;23.078;2023-05-23T02:25:29;96504.38;;;13.84;93.48
20015;BME280;61787;42.022;23.078;2023-05-23T02:26:31;96501.31;;;13.86;93.57
20015;BME280;61787;42.022;23.078;2023-05-23T02:27:33;96502.09;;;13.86;93.58
20015;BME280;61787;42.022;23.078;2023-05-23T02:28:34;96510.91;;;13.83;93.46
20015;BME280;61787;42.022;23.078;2023-05-23T02:29:36;96512.78;;;13.79;93.39
20015;BME280;61787;42.022;23.078;2023-05-23T02:30:38;96510.78;;;13.76;93.99
20015;BME280;61787;42.022;23.078;2023-05-23T02:31:40;96506.66;;;13.82;93.20
20015;BME280;61787;42.022;23.078;2023-05-23T02:32:42;96507.88;;;13.85;92.87
20015;BME280;61787;42.022;23.078;2023-05-23T02:33:44;96507.47;;;13.86;92.69
20015;BME280;61787;42.022;23.078;2023-05-23T02:34:45;96511.75;;;13.87;92.56
20015;BME280;61787;42.022;23.078;2023-05-23T02:35:50;96497.97;;;13.92;92.37
20015;BME280;61787;42.022;23.078;2023-05-23T02:36:52;96501.16;;;14.01;91.64
20015;BME280;61787;42.022;23.078;2023-05-23T02:37:54;96503.69;;;14.14;91.10
20015;BME280;61787;42.022;23.078;2023-05-23T02:38:55;96509.94;;;14.21;90.93
20015;BME280;61787;42.022;23.078;2023-05-23T02:39:57;96503.56;;;14.33;89.94
20015;BME280;61787;42.022;23.078;2023-05-23T02:40:59;96507.22;;;14.44;89.20
20015;BME280;61787;42.022;23.078;2023-05-23T02:42:01;96505.03;;;14.53;89.10
20015;BME280;61787;42.022;23.078;2023-05-23T02:43:03;96514.03;;;14.64;88.75
20015;BME280;61787;42.022;23.078;2023-05-23T02:44:04;96504.84;;;14.69;87.39
20015;BME280;61787;42.022;23.078;2023-05-23T02:45:07;96509.13;;;14.73;87.17
20015;BME280;61787;42.022;23.078;2023-05-23T02:46:08;96511.91;;;14.77;86.17
20015;BME280;61787;42.022;23.078;2023-05-23T02:47:10;96511.50;;;14.78;86.17
20015;BME280;61787;42.022;23.078;2023-05-23T02:48:12;96507.34;;;14.84;86.03
20015;BME280;61787;42.022;23.078;2023-05-23T02:49:13;96505.88;;;14.90;85.86
20015;BME280;61787;42.022;23.078;2023-05-23T02:50:15;96506.72;;;14.98;85.24
20015;BME280;61787;42.022;23.078;2023-05-23T02:51:17;96506.38;;;15.00;84.63
20015;BME280;61787;42.022;23.078;2023-05-23T02:52:18;96510.22;;;14.99;84.80
20015;BME280;61787;42.022;23.078;2023-05-23T02:53:21;96509.03;;;14.96;84.60
20015;BME280;61787;42.022;23.078;2023-05-23T02:54:23;96509.72;;;14.89;85.86
20015;BME280;61787;42.022;23.078;2023-05-23T02:55:24;96509.34;;;14.87;85.97
20015;BME280;61787;42.022;23.078;2023-05-23T02:56:26;96505.41;;;14.81;85.93
20015;BME280;61787;42.022;23.078;2023-05-23T02:57:28;96513.41;;;14.74;86.73
20015;BME280;61787;42.022;23.078;2023-05-23T02:58:29;96520.03;;;14.80;86.28
20015;BME280;61787;42.022;23.078;2023-05-23T02:59:32;96520.84;;;14.84;86.30
20015;BME280;61787;42.022;23.078;2023-05-23T03:00:35;96512.59;;;14.70;87.22
20015;BME280;61787;42.022;23.078;2023-05-23T03:01:37;96517.38;;;14.54;88.56
20015;BME280;61787;42.022;23.078;2023-05-23T03:02:38;96517.38;;;14.54;88.72
20015;BME280;61787;42.022;23.078;2023-05-23T03:03:40;96507.50;;;14.65;88.60
20015;BME280;61787;42.022;23.078;2023-05-23T03:04:42;96512.97;;;14.72;87.33
20015;BME280;61787;42.022;23.078;2023-05-23T03:05:44;96514.94;;;14.72;87.76
20015;BME280;61787;42.022;23.078;2023-05-23T03:06:45;96510.66;;;14.71;87.76
20015;BME280;61787;42.022;23.078;2023-05-23T03:07:47;96519.00;;;14.62;87.03
20015;BME280;61787;42.022;23.078;2023-05-23T03:08:49;96518.31;;;14.65;86.80
20015;BME280;61787;42.022;23.078;2023-05-23T03:09:51;96525.34;;;14.73;86.49
20015;BME280;61787;42.022;23.078;2023-05-23T03:10:52;96517.66;;;14.75;85.65
20015;BME280;61787;42.022;23.078;2023-05-23T03:11:54;96522.38;;;14.82;85.06
20015;BME280;61787;42.022;23.078;2023-05-23T03:12:55;96510.41;;;14.83;85.06
20015;BME280;61787;42.022;23.078;2023-05-23T03:13:57;96513.88;;;14.83;84.82
20015;BME280;61787;42.022;23.078;2023-05-23T03:14:59;96516.22;;;14.85;84.01
20015;BME280;61787;42.022;23.078;2023-05-23T03:16:01;96517.75;;;14.82;83.87
20015;BME280;61787;42.022;23.078;2023-05-23T03:17:02;96513.50;;;14.81;84.09
20015;BME280;61787;42.022;23.078;2023-05-23T03:18:04;96518.47;;;14.79;84.56
20015;BME280;61787;42.022;23.078;2023-05-23T03:19:06;96513.81;;;14.76;85.35
20015;BME280;61787;42.022;23.078;2023-05-23T03:20:08;96513.06;;;14.79;85.17
20015;BME280;61787;42.022;23.078;2023-05-23T03:21:10;96508.88;;;14.82;84.60
20015;BME280;61787;42.022;23.078;2023-05-23T03:22:12;96510.38;;;14.79;85.35
20015;BME280;61787;42.022;23.078;2023-05-23T03:23:13;96508.47;;;14.80;85.55
20015;BME280;61787;42.022;23.078;2023-05-23T03:24:15;96514.66;;;14.84;85.91
20015;BME280;61787;42.022;23.078;2023-05-23T03:25:16;96517.50;;;14.94;85.26
20015;BME280;61787;42.022;23.078;2023-05-23T03:26:18;96514.47;;;15.00;85.23
20015;BME280;61787;42.022;23.078;2023-05-23T03:27:20;96510.31;;;15.06;84.52
20015;BME280;61787;42.022;23.078;2023-05-23T03:28:21;96513.75;;;15.03;84.31
20015;BME280;61787;42.022;23.078;2023-05-23T03:29:23;96520.31;;;15.05;84.47
20015;BME280;61787;42.022;23.078;2023-05-23T03:30:25;96519.59;;;15.08;84.74
20015;BME280;61787;42.022;23.078;2023-05-23T03:31:26;96525.03;;;15.12;84.06
20015;BME280;61787;42.022;23.078;2023-05-23T03:32:28;96521.94;;;15.13;84.33
20015;BME280;61787;42.022;23.078;2023-05-23T03:33:30;96522.34;;;15.12;84.42
20015;BME280;61787;42.022;23.078;2023-05-23T03:34:32;96514.25;;;15.12;84.62
20015;BME280;61787;42.022;23.078;2023-05-23T03:35:34;96521.19;;;15.13;85.10
20015;BME280;61787;42.022;23.078;2023-05-23T03:36:35;96525.81;;;15.12;84.73
20015;BME280;61787;42.022;23.078;2023-05-23T03:37:39;96516.66;;;15.24;83.92
20015;BME280;61787;42.022;23.078;2023-05-23T03:38:41;96528.34;;;15.31;83.14
20015;BME280;61787;42.022;23.078;2023-05-23T03:39:42;96519.13;;;15.36;82.75
20015;BME280;61787;42.022;23.078;2023-05-23T03:40:44;96525.34;;;15.40;82.91
20015;BME280;61787;42.022;23.078;2023-05-23T03:41:46;96530.78;;;15.44;82.81
20015;BME280;61787;42.022;23.078;2023-05-23T03:43:03;96526.97;;;15.48;83.03
20015;BME280;61787;42.022;23.078;2023-05-23T03:44:05;96524.66;;;15.50;83.74
20015;BME280;61787;42.022;23.078;2023-05-23T03:45:08;96527.91;;;15.59;83.26
20015;BME280;61787;42.022;23.078;2023-05-23T03:46:09;96530.25;;;15.64;83.13
20015;BME280;61787;42.022;23.078;2023-05-23T03:47:11;96530.31;;;15.71;83.49
20015;BME280;61787;42.022;23.078;2023-05-23T03:48:13;96529.13;;;15.69;82.07
20015;BME280;61787;42.022;23.078;2023-05-23T03:49:15;96522.50;;;15.59;82.06
20015;BME280;61787;42.022;23.078;2023-05-23T03:50:16;96527.38;;;15.50;81.97
20015;BME280;61787;42.022;23.078;2023-05-23T03:51:18;96520.03;;;15.51;82.19
20015;BME280;61787;42.022;23.078;2023-05-23T03:52:21;96520.16;;;15.58;81.92
20015;BME280;61787;42.022;23.078;2023-05-23T03:53:23;96530.97;;;15.61;81.92
20015;BME280;61787;42.022;23.078;2023-05-23T03:54:24;96518.66;;;15.64;81.38
20015;BME280;61787;42.022;23.078;2023-05-23T03:55:26;96520.13;;;15.54;82.06
20015;BME280;61787;42.022;23.078;2023-05-23T03:56:27;96515.53;;;15.58;82.65
20015;BME280;61787;42.022;23.078;2023-05-23T03:57:29;96523.25;;;15.60;82.64
20015;BME280;61787;42.022;23.078;2023-05-23T03:58:31;96523.56;;;15.55;83.01
20015;BME280;61787;42.022;23.078;2023-05-23T03:59:33;96522.53;;;15.66;83.03
20015;BME280;61787;42.022;23.078;2023-05-23T04:00:35;96524.56;;;15.76;82.19
20015;BME280;61787;42.022;23.078;2023-05-23T04:01:36;96518.09;;;15.88;82.13
20015;BME280;61787;42.022;23.078;2023-05-23T04:02:38;96519.31;;;15.98;81.48
20015;BME280;61787;42.022;23.078;2023-05-23T04:03:40;96515.16;;;16.07;81.46
20015;BME280;61787;42.022;23.078;2023-05-23T04:04:42;96525.31;;;16.25;81.10
20015;BME280;61787;42.022;23.078;2023-05-23T04:05:44;96525.41;;;16.35;80.32
20015;BME280;61787;42.022;23.078;2023-05-23T04:06:46;96518.44;;;16.34;79.73
20015;BME280;61787;42.022;23.078;2023-05-23T04:07:48;96528.50;;;16.37;79.53
20015;BME280;61787;42.022;23.078;2023-05-23T04:08:49;96523.13;;;16.44;79.49
20015;BME280;61787;42.022;23.078;2023-05-23T04:09:51;96526.28;;;16.53;79.32
20015;BME280;61787;42.022;23.078;2023-05-23T04:10:53;96515.53;;;16.60;79.72
20015;BME280;61787;42.022;23.078;2023-05-23T04:11:54;96518.66;;;16.66;79.14
20015;BME280;61787;42.022;23.078;2023-05-23T04:12:56;96526.44;;;16.75;78.87
20015;BME280;61787;42.022;23.078;2023-05-23T04:13:59;96530.75;;;16.86;78.11
20015;BME280;61787;42.022;23.078;2023-05-23T04:15:02;96520.75;;;17.01;76.15
20015;BME280;61787;42.022;23.078;2023-05-23T04:16:04;96530.44;;;17.05;76.45
20015;BME280;61787;42.022;23.078;2023-05-23T04:17:06;96535.09;;;17.12;75.75
20015;BME280;61787;42.022;23.078;2023-05-23T04:18:09;96542.09;;;17.20;75.83
20015;BME280;61787;42.022;23.078;2023-05-23T04:19:11;96534.00;;;17.31;75.38
20015;BME280;61787;42.022;23.078;2023-05-23T04:20:12;96540.59;;;17.40;75.58
20015;BME280;61787;42.022;23.078;2023-05-23T04:21:14;96535.22;;;17.51;75.08
20015;BME280;61787;42.022;23.078;2023-05-23T04:22:16;96543.00;;;17.60;74.57
20015;BME280;61787;42.022;23.078;2023-05-23T04:23:18;96532.94;;;17.64;73.81
20015;BME280;61787;42.022;23.078;2023-05-23T04:24:19;96535.28;;;17.69;73.72
20015;BME280;61787;42.022;23.078;2023-05-23T04:25:21;96536.44;;;17.75;74.28
20015;BME280;61787;42.022;23.078;2023-05-23T04:26:23;96530.66;;;17.83;74.17
20015;BME280;61787;42.022;23.078;2023-05-23T04:27:24;96538.00;;;17.97;73.83
20015;BME280;61787;42.022;23.078;2023-05-23T04:28:26;96531.44;;;18.05;73.28
20015;BME280;61787;42.022;23.078;2023-05-23T04:29:30;96539.97;;;18.14;71.98
20015;BME280;61787;42.022;23.078;2023-05-23T04:30:32;96541.88;;;18.03;70.75
20015;BME280;61787;42.022;23.078;2023-05-23T04:31:33;96542.28;;;17.95;70.56
20015;BME280;61787;42.022;23.078;2023-05-23T04:32:36;96538.38;;;17.78;70.95
20015;BME280;61787;42.022;23.078;2023-05-23T04:33:38;96545.31;;;17.65;70.81
20015;BME280;61787;42.022;23.078;2023-05-23T04:34:40;96542.97;;;17.56;71.37
20015;BME280;61787;42.022;23.078;2023-05-23T04:35:42;96542.25;;;17.63;71.94
20015;BME280;61787;42.022;23.078;2023-05-23T04:36:44;96543.81;;;17.78;71.19
20015;BME280;61787;42.022;23.078;2023-05-23T04:37:45;96536.84;;;17.84;70.63
20015;BME280;61787;42.022;23.078;2023-05-23T04:38:47;96538.41;;;17.99;70.17
20015;BME280;61787;42.022;23.078;2023-05-23T04:39:49;96541.50;;;18.08;69.58
20015;BME280;61787;42.022;23.078;2023-05-23T04:40:51;96537.59;;;18.27;69.41
20015;BME280;61787;42.022;23.078;2023-05-23T04:41:53;96545.38;;;18.39;68.96
20015;BME280;61787;42.022;23.078;2023-05-23T04:42:54;96545.34;;;18.50;68.45
20015;BME280;61787;42.022;23.078;2023-05-23T04:43:57;96539.94;;;18.57;67.28
20015;BME280;61787;42.022;23.078;2023-05-23T04:44:59;96539.13;;;18.63;66.88
20015;BME280;61787;42.022;23.078;2023-05-23T04:46:02;96537.94;;;18.75;66.39
20015;BME280;61787;42.022;23.078;2023-05-23T04:47:04;96539.09;;;18.85;66.24
20015;BME280;61787;42.022;23.078;2023-05-23T04:48:09;96542.13;;;19.01;65.64
20015;BME280;61787;42.022;23.078;2023-05-23T04:49:13;96545.97;;;19.10;65.78
20015;BME280;61787;42.022;23.078;2023-05-23T04:50:15;96543.59;;;19.20;65.58
20015;BME280;61787;42.022;23.078;2023-05-23T04:51:17;96541.22;;;19.32;65.42
20015;BME280;61787;42.022;23.078;2023-05-23T04:52:18;96536.53;;;19.40;65.00
20015;BME280;61787;42.022;23.078;2023-05-23T04:53:21;96540.03;;;19.47;65.12
20015;BME280;61787;42.022;23.078;2023-05-23T04:54:23;96539.16;;;19.61;63.79
20015;BME280;61787;42.022;23.078;2023-05-23T04:55:24;96541.88;;;19.61;63.60
20015;BME280;61787;42.022;23.078;2023-05-23T04:56:26;96538.75;;;19.63;63.46
20015;BME280;61787;42.022;23.078;2023-05-23T04:57:28;96540.25;;;19.71;63.27
20015;BME280;61787;42.022;23.078;2023-05-23T04:58:30;96541.75;;;19.82;63.56
20015;BME280;61787;42.022;23.078;2023-05-23T04:59:32;96540.88;;;19.92;63.27
20015;BME280;61787;42.022;23.078;2023-05-23T05:00:34;96543.94;;;20.01;63.07
20015;BME280;61787;42.022;23.078;2023-05-23T05:01:36;96550.88;;;20.10;62.13
20015;BME280;61787;42.022;23.078;2023-05-23T05:02:41;96548.50;;;20.15;61.84
20015;BME280;61787;42.022;23.078;2023-05-23T05:03:44;96546.09;;;20.24;61.35
20015;BME280;61787;42.022;23.078;2023-05-23T05:04:46;96542.16;;;20.32;61.36
20015;BME280;61787;42.022;23.078;2023-05-23T05:05:47;96543.56;;;20.48;61.02
20015;BME280;61787;42.022;23.078;2023-05-23T05:06:49;96543.09;;;20.56;61.13
20015;BME280;61787;42.022;23.078;2023-05-23T05:07:50;96547.34;;;20.57;61.46
20015;BME280;61787;42.022;23.078;2023-05-23T05:08:52;96544.97;;;20.66;60.58
20015;BME280;61787;42.022;23.078;2023-05-23T05:09:54;96546.75;;;20.80;60.27
20015;BME280;61787;42.022;23.078;2023-05-23T05:10:58;96550.97;;;20.84;59.78
20015;BME280;61787;42.022;23.078;2023-05-23T05:11:59;96546.41;;;20.74;60.17
20015;BME280;61787;42.022;23.078;2023-05-23T05:13:01;96548.78;;;20.72;60.57
20015;BME280;61787;42.022;23.078;2023-05-23T05:14:03;96552.66;;;20.75;61.10
20015;BME280;61787;42.022;23.078;2023-05-23T05:15:05;96543.69;;;20.74;61.03
20015;BME280;61787;42.022;23.078;2023-05-23T05:16:07;96544.25;;;20.59;61.59
20015;BME280;61787;42.022;23.078;2023-05-23T05:17:08;96543.91;;;20.53;62.25
20015;BME280;61787;42.022;23.078;2023-05-23T05:18:10;96544.56;;;20.64;61.96
20015;BME280;61787;42.022;23.078;2023-05-23T05:19:12;96546.13;;;20.65;62.66
20015;BME280;61787;42.022;23.078;2023-05-23T05:20:14;96544.72;;;20.50;63.92
20015;BME280;61787;42.022;23.078;2023-05-23T05:21:16;96549.78;;;20.48;64.87
20015;BME280;61787;42.022;23.078;2023-05-23T05:22:18;96543.25;;;20.38;64.07
20015;BME280;61787;42.022;23.078;2023-05-23T05:23:23;96540.44;;;20.49;64.10
20015;BME280;61787;42.022;23.078;2023-05-23T05:24:25;96541.84;;;20.64;63.90
20015;BME280;61787;42.022;23.078;2023-05-23T05:25:28;96541.69;;;20.78;62.70
20015;BME280;61787;42.022;23.078;2023-05-23T05:26:32;96543.91;;;20.91;62.21
20015;BME280;61787;42.022;23.078;2023-05-23T05:27:34;96548.41;;;21.04;62.68
20015;BME280;61787;42.022;23.078;2023-05-23T05:28:38;96541.31;;;21.14;62.16
20015;BME280;61787;42.022;23.078;2023-05-23T05:29:39;96539.63;;;21.27;61.48
20015;BME280;61787;42.022;23.078;2023-05-23T05:30:42;96540.59;;;21.40;60.67
20015;BME280;61787;42.022;23.078;2023-05-23T05:31:46;96539.34;;;21.48;59.75
20015;BME280;61787;42.022;23.078;2023-05-23T05:32:48;96537.97;;;21.63;59.49